Decoded Metar for PAHL (HUSLIA in AK, USA) (IATA:N/A) | Meteo·Mobile Aviation Weather
aviador You're here:

PAHL Decoded Metar

HUSLIA in AK, USA
Report Time2018-08-19 04:56:00
UTC Time2018-08-19 05:27:18
Flight Rules vfr VFR
Wind180° at 05 kt
W.Decomp.*RWY 21: 3.3 kt HW 3.8 kt LCW
W.Rank180° ranks 22
Current wind is below 180° avg. (6.6)
Visibility9999 m
Phenomena:N/A
Clouds:N/A
Expected CloudBase > 4,800 ft AGL from Temp-Dew spread
CeilingNone
Temp18°C (ISA +3)
Dew Point06°C (46% RH)
AAT15.3°C
QNH1020 hPa
Density Alt509 ft
Elevation213 ft
Report Wrong Elevation
Raw Report
PAHL 190456Z AUTO 18005KT 10SM CLR 18/06 A3012 RMK AO2 SLP208
T01780061=

Extra information for PAHL:More info

Metar Taf Metar & Taf Last 4 Metars F.Rules Stats Wind Profile Meteogram Temp Stats Airport Information Weather charts Add Link Nearby VenuesMetar ALERT Operation Metar Decoded Social comments

AIRNAV info for PAHL